Stoner, Colorado
Current Conditions -  °F | °C
As of 10:53 PM on Friday 19 Dec 2014 (Local Time) from KCEZ Reporting Station
Clear Clear  
Wind Chill: 16°   Ceiling: Unl
Heat Index: 24°   Visibility: 10mi
Dew Point: 22°   Wind: 7mph
Humidity: 91%   Direction: 60°ENE
Pressure: 30.21"   Gusts: NA
Location:  37.5429°N, 108.35°W
Report Text: KCEZ 200553Z AUTO 06006KT 10SM CLR M04/M06 A3021 RMK AO2 SLP244 T10441056 10017 21044 53001
Loading
Personal Weather Stations






























Interactive Weather Map New forecast layout! Learn more

10-Day Weather Forecast

Advertisements
Track Severe Weather on mobile